Manitou Beach, Washington
Current Conditions -  °F | °C
As of 11:53 AM on Tuesday 21 Oct 2014 (Local Time) from KBFI Reporting Station
Broken Clouds Broken Clouds  
Wind Chill: 63°   Ceiling: 20000
Heat Index: 63°   Visibility: 10mi
Dew Point: 50°   Wind: 9mph
Humidity: 63%   Direction: 170°S
Pressure: 29.92"   Gusts: 17mph
Location:  47.6559°N, 122.509°W
Report Text: KBFI 211853Z 17008G15KT 10SM FEW015 SCT040 BKN200 17/10 A2992 RMK AO2 RAB09E20 SLP131 P0000 T01720100
Loading
Personal Weather Stations






























Interactive Weather Map
Tropical Storm Tracking
New forecast layout! Learn more

10-Day Weather Forecast

Advertisements
Track Severe Weather on mobile